Agios Ioannis II — SV4996 — position and weather

sailwx.info

Track history (hours):
 
Tides and Currents Weather Stations Pressure Air Temp Water Temp Dewpoint Dewpoint Depression Visibility Wind Speed Wind Dir Waves Ship Positions

Agios Ioannis II

Last reported at 2014-Aug-26 19:18 UTC. Time now 2014-Aug-29 14:23 UTC.
Position N 37°56' E 026°06'.

Length 27 m.

Type: Other ship. MMSI: 237519000.

Date/timePositionNaut miles runAvg speedWind from/ knotsBaromVisibWave heightAir tempDewpointWater temp
2014-Aug-26 19:18N 37°56' E 026°06'27 0.5
2014-Aug-24 15:33N 38°16' E 025°43'8 2.3
2014-Aug-24 12:07N 38°10' E 025°37'2 3.1
2014-Aug-24 11:32N 38°08' E 025°36'5 3.3
2014-Aug-24 10:05N 38°05' E 025°31'0 0.4
2014-Aug-24 09:32N 38°05' E 025°31'2 2.3
2014-Aug-24 08:31N 38°07' E 025°33'3 3.1
2014-Aug-24 07:32N 38°09' E 025°36'4 3.1
2014-Aug-24 06:23N 38°11' E 025°40'3 3.2
2014-Aug-24 05:19N 38°13' E 025°43'3 3.2
2014-Aug-24 04:21N 38°16' E 025°44'6 1.0
2014-Aug-23 22:31N 38°22' E 025°45'1 0.3
2014-Aug-23 19:15N 38°22' E 025°44'1 0.1
2014-Aug-22 17:05N 38°22' E 025°46'16 2.9
2014-Aug-22 11:29N 38°08' E 025°35'7 2.3
2014-Aug-22 08:33N 38°06' E 025°27'10 2.9
2014-Aug-22 05:15N 38°11' E 025°38'3 3.1
2014-Aug-22 04:11N 38°12' E 025°42'13 0.6
2014-Aug-21 07:33N 38°06' E 025°27'3 3.0
2014-Aug-21 06:30N 38°06' E 025°31'10 2.5
2014-Aug-21 02:34N 38°12' E 025°41'0 0.2
2014-Aug-21 01:32N 38°12' E 025°41'0 0.1
2014-Aug-21 00:32N 38°12' E 025°41'10 5.1
2014-Aug-20 22:33N 38°02' E 025°44'2 1.5
2014-Aug-20 21:31N 38°01' E 025°45'  
Track history (hours):
 
Tides and Currents Weather Stations Pressure Air Temp Water Temp Dewpoint Dewpoint Depression Visibility Wind Speed Wind Dir Waves Ship Positions

Agios Ioannis II

Last reported at 2014-Aug-26 19:18 UTC. Time now 2014-Aug-29 14:23 UTC.
Position N 37°56' E 026°06'.

Length 27 m.

Type: Other ship. MMSI: 237519000.

Date/timePositionNaut miles runAvg speedWind from/ knotsBaromVisibWave heightAir tempDewpointWater temp
2014-Aug-26 19:18N 37°56' E 026°06'27 0.5
2014-Aug-24 15:33N 38°16' E 025°43'8 2.3
2014-Aug-24 12:07N 38°10' E 025°37'2 3.1
2014-Aug-24 11:32N 38°08' E 025°36'5 3.3
2014-Aug-24 10:05N 38°05' E 025°31'0 0.4
2014-Aug-24 09:32N 38°05' E 025°31'2 2.3
2014-Aug-24 08:31N 38°07' E 025°33'3 3.1
2014-Aug-24 07:32N 38°09' E 025°36'4 3.1
2014-Aug-24 06:23N 38°11' E 025°40'3 3.2
2014-Aug-24 05:19N 38°13' E 025°43'3 3.2
2014-Aug-24 04:21N 38°16' E 025°44'6 1.0
2014-Aug-23 22:31N 38°22' E 025°45'1 0.3
2014-Aug-23 19:15N 38°22' E 025°44'1 0.1
2014-Aug-22 17:05N 38°22' E 025°46'16 2.9
2014-Aug-22 11:29N 38°08' E 025°35'7 2.3
2014-Aug-22 08:33N 38°06' E 025°27'10 2.9
2014-Aug-22 05:15N 38°11' E 025°38'3 3.1
2014-Aug-22 04:11N 38°12' E 025°42'13 0.6
2014-Aug-21 07:33N 38°06' E 025°27'3 3.0
2014-Aug-21 06:30N 38°06' E 025°31'10 2.5
2014-Aug-21 02:34N 38°12' E 025°41'0 0.2
2014-Aug-21 01:32N 38°12' E 025°41'0 0.1
2014-Aug-21 00:32N 38°12' E 025°41'10 5.1
2014-Aug-20 22:33N 38°02' E 025°44'2 1.5
2014-Aug-20 21:31N 38°01' E 025°45'  

Dump ship's entire track history